KCMX/CMX METAR and TAF weather

Enter ICAO airport designator
Station Type Date Time Source
KCMX METAR 2018/07/19 06:53 UTC NOAA

KCMX 190653Z AUTO 26003KT 10SM CLR 13/11 A2998 RMK AO2 SLP152 T01330106


Station Type Date Time Source
KCMX Decoded METAR 2018/07/19 06:53 UTC NOAA

HANCOCK HOUGHTON CTY. MEMO, MI, United States (KCMX) 47-10N 088-29W 326M
Jul 19, 2018 - 02:53 AM EDT / 2018.07.19 0653 UTC
Wind: from the W (260 degrees) at 3 MPH (3 KT):0
Visibility: 10 mile(s):0
Sky conditions: clear
Temperature: 55.9 F (13.3 C)
Dew Point: 51.1 F (10.6 C)
Relative Humidity: 83%
Pressure (altimeter): 29.98 in. Hg (1015 hPa)
ob: KCMX 190653Z AUTO 26003KT 10SM CLR 13/11 A2998 RMK AO2 SLP152 T01330106
cycle: 7

Station Type Date Time Source
KCMX TAF 2018/07/19 06:24 UTC NOAA

TAF KCMX 190521Z 1906/2006 VRB03KT P6SM SKC
FM191500 16005KT P6SM FEW250
FM192000 12007KT P6SM SCT200


Example: see airport list